Time;durP1;ratioP1;P1;durP2;ratioP2;P2;SDS_P1;SDS_P2;PMS_P1;PMS_P2;Temp;Humidity;BMP_temperature;BMP_pressure;BME280_temperature;BME280_humidity;BME280_pressure;Samples;Min_cycle;Max_cycle;Signal;HPM_P1;HPM_P2
2024/01/17 00:02:19;;;;;;;24.73;11.80;;;;;;;-0.87;76.49;100122.34;1448789;89;21819;-79
2024/01/17 00:04:50;;;;;;;34.00;11.60;;;;;;;-0.88;76.84;100121.97;1439446;89;21691;-78
2024/01/17 00:07:15;;;;;;;28.17;11.90;;;;;;;-0.88;76.73;100122.81;1449298;89;22688;-81
2024/01/17 00:09:41;;;;;;;17.83;10.30;;;;;;;-0.87;76.39;100121.05;1437862;89;21460;-81
2024/01/17 00:12:08;;;;;;;19.67;10.67;;;;;;;-0.87;76.75;100128.37;1451790;89;21585;-80
2024/01/17 00:14:34;;;;;;;19.60;11.13;;;;;;;-0.87;76.80;100132.73;1451082;89;21664;-81
2024/01/17 00:17:00;;;;;;;18.63;11.17;;;;;;;-0.91;76.56;100134.20;1452943;89;21666;-81
2024/01/17 00:19:29;;;;;;;20.80;11.10;;;;;;;-0.93;76.95;100132.13;1456356;89;22577;-81
2024/01/17 00:21:55;;;;;;;19.60;11.17;;;;;;;-0.97;76.86;100124.14;1455400;88;22735;-81
2024/01/17 00:24:21;;;;;;;17.57;10.33;;;;;;;-0.97;77.11;100116.81;1463685;89;21670;-80
2024/01/17 00:26:47;;;;;;;17.30;9.80;;;;;;;-1.00;76.61;100116.52;1464154;89;21767;-80
2024/01/17 00:29:15;;;;;;;19.87;11.17;;;;;;;-1.01;76.66;100117.88;1463581;89;21805;-81
2024/01/17 00:31:43;;;;;;;17.07;10.27;;;;;;;-1.02;76.31;100114.91;1470654;89;21579;-80
2024/01/17 00:34:09;;;;;;;18.13;10.87;;;;;;;-1.04;76.48;100116.28;1470259;89;22175;-78
2024/01/17 00:36:35;;;;;;;19.67;11.40;;;;;;;-1.05;76.63;100112.48;1475236;89;21783;-78
2024/01/17 00:39:02;;;;;;;21.87;9.87;;;;;;;-1.07;76.60;100100.86;1462278;89;21496;-79
2024/01/17 00:41:28;;;;;;;20.53;12.47;;;;;;;-1.06;76.43;100102.55;1463158;89;21437;-79
2024/01/17 00:43:54;;;;;;;22.98;12.60;;;;;;;-1.07;76.55;100106.05;1465243;89;21728;-79
2024/01/17 00:46:20;;;;;;;25.32;13.90;;;;;;;-1.08;76.72;100113.48;1452502;89;21443;-80
2024/01/17 00:48:46;;;;;;;21.53;12.57;;;;;;;-1.09;76.90;100107.91;1470419;89;21458;-79
2024/01/17 00:51:24;;;;;;;21.05;11.63;;;;;;;-1.11;77.49;100108.91;1466259;89;21775;-78
2024/01/17 00:53:53;;;;;;;22.60;13.20;;;;;;;-1.12;77.59;100112.41;1468510;88;22226;-80
2024/01/17 00:56:20;;;;;;;23.12;11.95;;;;;;;-1.13;77.93;100106.38;1468407;89;21517;-78
2024/01/17 00:58:46;;;;;;;25.63;14.03;;;;;;;-1.10;77.72;100107.98;1468653;89;21490;-78
2024/01/17 01:01:12;;;;;;;27.90;14.07;;;;;;;-1.10;78.10;100107.52;1470424;89;22322;-79
2024/01/17 01:03:38;;;;;;;24.77;13.10;;;;;;;-1.09;78.25;100096.66;1461673;89;21347;-77
2024/01/17 01:06:05;;;;;;;25.50;13.00;;;;;;;-1.10;78.89;100110.58;1460516;89;21603;-79
2024/01/17 01:08:31;;;;;;;24.80;13.77;;;;;;;-1.09;78.76;100106.61;1470454;89;22546;-78
2024/01/17 01:10:58;;;;;;;23.27;14.20;;;;;;;-1.08;79.46;100101.79;1464712;89;21659;-78
2024/01/17 01:13:24;;;;;;;40.17;21.87;;;;;;;-1.07;79.12;100101.32;1470562;89;21824;-77
2024/01/17 01:15:50;;;;;;;28.30;17.23;;;;;;;-1.12;81.50;100105.48;1451889;89;21842;-77
2024/01/17 01:18:16;;;;;;;23.52;14.23;;;;;;;-1.12;81.06;100095.09;1464853;89;21815;-78
2024/01/17 01:20:42;;;;;;;30.03;15.43;;;;;;;-1.12;80.32;100095.53;1463139;89;21532;-77
2024/01/17 01:23:09;;;;;;;26.93;14.93;;;;;;;-1.10;80.37;100095.83;1452427;89;21647;-77
2024/01/17 01:25:36;;;;;;;22.97;13.67;;;;;;;-1.08;80.96;100083.61;1464519;88;22126;-78
2024/01/17 01:28:02;;;;;;;19.17;11.67;;;;;;;-1.07;80.87;100085.27;1462647;88;23129;-77
2024/01/17 01:30:29;;;;;;;23.40;14.70;;;;;;;-1.08;81.81;100082.31;1461318;89;22080;-77
2024/01/17 01:32:56;;;;;;;25.53;14.87;;;;;;;-1.10;82.91;100080.24;1468490;88;21815;-77
2024/01/17 01:35:22;;;;;;;23.93;13.20;;;;;;;-1.07;83.07;100087.87;1458814;89;21513;-77
2024/01/17 01:37:48;;;;;;;27.20;14.30;;;;;;;-1.07;84.54;100083.14;1466525;88;21600;-79
2024/01/17 01:40:15;;;;;;;29.17;14.27;;;;;;;-1.07;84.30;100082.67;1459985;89;22686;-79
2024/01/17 01:42:44;;;;;;;20.93;12.63;;;;;;;-1.07;86.90;100084.44;1455781;88;21577;-79
2024/01/17 01:45:10;;;;;;;23.83;13.50;;;;;;;-1.06;87.01;100077.87;1466148;89;22917;-79
2024/01/17 01:47:37;;;;;;;22.87;12.78;;;;;;;-1.04;92.13;100080.38;1469060;88;22025;-79
2024/01/17 01:50:05;;;;;;;24.90;14.07;;;;;;;-1.03;91.25;100076.88;1462246;88;21396;-79
2024/01/17 01:52:34;;;;;;;23.13;12.47;;;;;;;-1.02;90.72;100074.65;1449306;89;22503;-79
2024/01/17 01:55:02;;;;;;;20.53;12.27;;;;;;;-1.02;92.07;100071.58;1464538;88;22194;-79
2024/01/17 01:57:30;;;;;;;26.13;14.83;;;;;;;-1.01;90.64;100069.36;1463186;88;21660;-79
2024/01/17 01:59:57;;;;;;;23.35;13.78;;;;;;;-0.97;90.55;100064.86;1462950;88;23020;-79
2024/01/17 02:02:24;;;;;;;21.93;12.90;;;;;;;-0.98;90.47;100067.92;1458337;89;21426;-79
2024/01/17 02:04:53;;;;;;;22.60;13.17;;;;;;;-0.95;90.33;100074.25;1466364;89;21495;-79
2024/01/17 02:07:21;;;;;;;25.10;13.70;;;;;;;-0.95;90.36;100073.38;1459410;89;21514;-79
2024/01/17 02:09:49;;;;;;;20.93;12.73;;;;;;;-0.94;91.13;100064.69;1463496;88;21589;-79
2024/01/17 02:12:15;;;;;;;28.33;13.50;;;;;;;-0.95;94.32;100059.95;1460760;88;22561;-79
2024/01/17 02:14:42;;;;;;;21.70;12.17;;;;;;;-0.92;92.18;100066.75;1468893;88;23164;-79
2024/01/17 02:17:08;;;;;;;20.72;13.13;;;;;;;-0.91;91.44;100062.75;1453977;88;21523;-80
2024/01/17 02:19:37;;;;;;;29.87;14.77;;;;;;;-0.91;91.72;100064.05;1459430;88;21479;-80
2024/01/17 02:22:04;;;;;;;21.63;11.43;;;;;;;-0.89;91.12;100065.72;1467082;88;23019;-78
2024/01/17 02:24:31;;;;;;;23.55;12.63;;;;;;;-0.89;91.26;100057.92;1468090;89;21819;-80
2024/01/17 02:27:01;;;;;;;20.73;12.63;;;;;;;-0.89;92.58;100064.41;1470965;89;21370;-79
2024/01/17 02:29:28;;;;;;;19.53;12.03;;;;;;;-0.89;91.72;100064.41;1466726;88;21698;-76
2024/01/17 02:31:56;;;;;;;25.23;14.27;;;;;;;-0.91;92.62;100062.75;1467685;89;22113;-76
2024/01/17 02:34:22;;;;;;;22.17;12.97;;;;;;;-0.90;94.08;100070.08;1471057;89;21604;-76
2024/01/17 02:36:49;;;;;;;22.87;14.33;;;;;;;-0.91;93.65;100063.22;1464991;89;21975;-76
2024/01/17 02:39:15;;;;;;;25.67;14.73;;;;;;;-0.92;93.90;100061.09;1463342;89;22185;-77
2024/01/17 02:41:44;;;;;;;25.63;14.20;;;;;;;-0.92;94.14;100062.85;1469777;89;21657;-77
2024/01/17 02:44:10;;;;;;;23.00;13.18;;;;;;;-0.89;93.18;100057.92;1463906;89;23065;-77
2024/01/17 02:46:36;;;;;;;19.02;11.60;;;;;;;-0.88;93.92;100054.42;1463803;89;21391;-79
2024/01/17 02:49:03;;;;;;;27.50;13.30;;;;;;;-0.88;94.44;100055.72;1465706;89;21362;-76
2024/01/17 02:51:29;;;;;;;20.12;11.38;;;;;;;-0.87;93.49;100054.79;1467678;89;21521;-76
2024/01/17 02:53:55;;;;;;;18.57;10.03;;;;;;;-0.86;93.95;100061.65;1471552;89;21630;-77
2024/01/17 02:56:22;;;;;;;19.03;10.30;;;;;;;-0.85;93.53;100054.25;1453494;89;21652;-77
2024/01/17 02:58:48;;;;;;;17.25;11.08;;;;;;;-0.85;93.48;100051.66;1467952;89;21760;-78
2024/01/17 03:01:15;;;;;;;19.80;10.83;;;;;;;-0.85;92.67;100050.35;1468446;89;21529;-78
2024/01/17 03:03:41;;;;;;;19.10;11.33;;;;;;;-0.84;93.80;100048.13;1462977;89;21555;-77
2024/01/17 03:06:07;;;;;;;18.07;9.73;;;;;;;-0.84;92.93;100046.82;1470701;89;21711;-77
2024/01/17 03:08:33;;;;;;;15.77;9.53;;;;;;;-0.80;92.49;100045.75;1464716;89;21884;-78
2024/01/17 03:11:00;;;;;;;14.07;9.17;;;;;;;-0.80;92.28;100044.45;1469887;89;21616;-78
2024/01/17 03:13:26;;;;;;;15.43;9.23;;;;;;;-0.78;91.72;100045.18;1463511;89;22879;-77
2024/01/17 03:15:53;;;;;;;16.40;9.93;;;;;;;-0.78;91.32;100039.98;1467794;89;22947;-80
2024/01/17 03:18:20;;;;;;;20.30;10.20;;;;;;;-0.76;91.50;100039.45;1463804;89;21629;-80
2024/01/17 03:20:46;;;;;;;16.87;9.30;;;;;;;-0.75;91.35;100035.91;1465583;89;21612;-80
2024/01/17 03:23:13;;;;;;;17.45;9.45;;;;;;;-0.72;90.87;100033.14;1472979;88;22694;-80
2024/01/17 03:25:39;;;;;;;16.30;9.23;;;;;;;-0.71;90.32;100032.23;1474955;88;21347;-77
2024/01/17 03:28:06;;;;;;;21.43;12.27;;;;;;;-0.69;89.75;100033.83;1481783;88;21684;-76
2024/01/17 03:30:34;;;;;;;23.93;11.53;;;;;;;-0.67;89.36;100027.70;1455310;88;21741;-77
2024/01/17 03:33:00;;;;;;;17.73;10.30;;;;;;;-0.67;88.93;100027.70;1478855;88;22055;-76
2024/01/17 03:35:26;;;;;;;23.30;11.10;;;;;;;-0.68;88.66;100033.36;1470585;88;21685;-78
2024/01/17 03:37:52;;;;;;;17.97;10.07;;;;;;;-0.67;88.08;100033.73;1450816;88;22574;-78
2024/01/17 03:40:18;;;;;;;18.90;9.50;;;;;;;-0.67;88.04;100029.00;1473607;88;21599;-78
2024/01/17 03:42:46;;;;;;;19.20;10.47;;;;;;;-0.71;87.96;100030.94;1478740;88;22727;-79
2024/01/17 03:45:13;;;;;;;15.60;8.77;;;;;;;-0.75;87.46;100028.98;1466085;88;21589;-79
2024/01/17 03:47:39;;;;;;;15.67;9.03;;;;;;;-0.79;87.71;100025.33;1471334;88;21620;-77
2024/01/17 03:50:06;;;;;;;17.53;10.07;;;;;;;-0.83;87.37;100030.33;1473533;88;22192;-79
2024/01/17 03:52:32;;;;;;;17.87;9.73;;;;;;;-0.86;87.15;100025.27;1473129;88;21524;-79
2024/01/17 03:54:58;;;;;;;18.50;9.95;;;;;;;-0.91;87.03;100028.14;1476327;88;21627;-79
2024/01/17 03:57:24;;;;;;;20.43;10.20;;;;;;;-0.94;86.80;100025.25;1464314;88;21414;-79
2024/01/17 03:59:51;;;;;;;14.97;8.70;;;;;;;-0.96;86.85;100023.66;1473156;88;21487;-79
2024/01/17 04:02:17;;;;;;;15.30;9.23;;;;;;;-0.98;86.38;100017.27;1471131;88;21935;-79
2024/01/17 04:04:44;;;;;;;15.83;8.98;;;;;;;-1.03;86.45;100012.77;1464270;88;22243;-78
2024/01/17 04:07:11;;;;;;;15.30;8.95;;;;;;;-1.07;86.22;100013.84;1470291;88;22457;-79
2024/01/17 04:09:37;;;;;;;18.73;10.30;;;;;;;-1.13;86.42;100014.19;1469857;88;22430;-78
2024/01/17 04:12:04;;;;;;;14.83;9.03;;;;;;;-1.18;86.41;100016.19;1475329;88;21503;-79
2024/01/17 04:14:30;;;;;;;16.37;9.23;;;;;;;-1.22;86.13;100008.20;1480971;88;21384;-79
2024/01/17 04:16:56;;;;;;;14.50;7.95;;;;;;;-1.26;86.01;100012.72;1472727;88;21578;-78
2024/01/17 04:19:23;;;;;;;16.15;8.70;;;;;;;-1.29;85.98;100008.99;1463732;88;21341;-79
2024/01/17 04:21:49;;;;;;;17.05;9.43;;;;;;;-1.33;85.71;100004.03;1463201;88;21482;-80
2024/01/17 04:24:15;;;;;;;18.65;10.90;;;;;;;-1.38;85.78;100011.62;1466208;88;21629;-80
2024/01/17 04:26:42;;;;;;;36.58;21.60;;;;;;;-1.45;85.91;100002.47;1465463;89;21489;-80
2024/01/17 04:29:08;;;;;;;30.17;18.00;;;;;;;-1.52;86.33;100006.33;1472600;89;21429;-79
2024/01/17 04:31:34;;;;;;;27.75;14.73;;;;;;;-1.62;86.63;100010.31;1469206;89;21474;-80
2024/01/17 04:34:04;;;;;;;22.50;11.88;;;;;;;-1.69;87.18;100009.80;1467261;89;21353;-80
2024/01/17 04:36:30;;;;;;;21.90;13.00;;;;;;;-1.73;87.64;100003.55;1471890;89;21577;-81
2024/01/17 04:38:58;;;;;;;19.30;11.90;;;;;;;-1.80;88.63;99996.55;1475549;89;21340;-81
2024/01/17 04:41:24;;;;;;;23.45;14.05;;;;;;;-1.86;88.84;99995.11;1465764;89;22566;-81
2024/01/17 04:43:51;;;;;;;21.62;12.00;;;;;;;-1.92;89.35;99995.42;1471838;88;22246;-80
2024/01/17 04:46:17;;;;;;;23.62;13.72;;;;;;;-1.96;90.18;99998.25;1474321;89;21460;-80
2024/01/17 04:48:45;;;;;;;23.80;13.58;;;;;;;-2.00;90.69;99989.80;1460951;89;21311;-80
2024/01/17 04:51:12;;;;;;;28.70;15.53;;;;;;;-2.02;90.59;99983.00;1463472;89;21333;-80
2024/01/17 04:53:42;;;;;;;27.13;14.93;;;;;;;-2.06;90.99;99992.23;1464063;89;21576;-80
2024/01/17 04:56:11;;;;;;;21.97;12.33;;;;;;;-2.07;91.63;99991.03;1465658;89;21458;-79
2024/01/17 04:58:37;;;;;;;23.92;12.80;;;;;;;-2.08;90.87;99990.63;1461467;89;22508;-80
2024/01/17 05:01:11;;;;;;;23.50;11.63;;;;;;;-2.11;90.59;99986.91;1463900;89;21480;-79
2024/01/17 05:03:39;;;;;;;23.42;11.28;;;;;;;-2.15;91.85;99990.12;1450973;89;21708;-78
2024/01/17 05:06:06;;;;;;;20.77;12.28;;;;;;;-2.17;91.70;99989.34;1474082;88;22032;-76
2024/01/17 05:08:32;;;;;;;23.42;11.88;;;;;;;-2.17;91.40;99987.22;1462313;89;21550;-77
2024/01/17 05:10:58;;;;;;;23.32;11.97;;;;;;;-2.19;91.98;99975.61;1461738;89;21406;-77
2024/01/17 05:13:25;;;;;;;25.55;12.70;;;;;;;-2.26;94.12;99971.67;1474102;89;22419;-77
2024/01/17 05:15:51;;;;;;;29.15;14.45;;;;;;;-2.31;93.79;99969.76;1470766;89;21310;-78
2024/01/17 05:18:17;;;;;;;35.17;17.20;;;;;;;-2.36;94.58;99967.42;1456091;89;22191;-78
2024/01/17 05:20:44;;;;;;;39.67;16.65;;;;;;;-2.40;96.30;99958.09;1474703;89;21527;-79
2024/01/17 05:23:10;;;;;;;36.55;14.85;;;;;;;-2.40;94.50;99960.69;1466915;88;21652;-79
2024/01/17 05:25:36;;;;;;;35.33;16.10;;;;;;;-2.40;94.31;99967.17;1447863;88;21436;-78
2024/01/17 05:28:06;;;;;;;27.07;13.40;;;;;;;-2.39;94.08;99961.53;1471748;88;21377;-79
2024/01/17 05:30:32;;;;;;;21.35;10.30;;;;;;;-2.37;93.25;99957.11;1467774;88;21409;-79
2024/01/17 05:32:59;;;;;;;22.90;12.60;;;;;;;-2.37;92.76;99955.81;1470399;88;21384;-79
2024/01/17 05:35:27;;;;;;;23.73;12.95;;;;;;;-2.37;92.35;99955.81;1463994;88;22449;-79
2024/01/17 05:37:53;;;;;;;21.27;12.30;;;;;;;-2.36;92.26;99953.59;1470308;88;21458;-79
2024/01/17 05:40:19;;;;;;;23.85;14.10;;;;;;;-2.36;92.05;99960.08;1459175;88;21577;-77
2024/01/17 05:42:46;;;;;;;28.23;13.58;;;;;;;-2.37;91.81;99963.13;1474494;88;21398;-79
2024/01/17 05:45:12;;;;;;;23.07;12.47;;;;;;;-2.37;91.44;99962.30;1476129;88;22411;-79
2024/01/17 05:47:39;;;;;;;24.43;14.30;;;;;;;-2.40;91.21;99958.09;1477826;88;21562;-79
2024/01/17 05:50:08;;;;;;;22.93;14.00;;;;;;;-2.43;91.92;99947.89;1466712;88;21384;-78
2024/01/17 05:52:39;;;;;;;41.77;21.02;;;;;;;-2.48;92.14;99934.31;1469918;88;21494;-78
2024/01/17 05:55:09;;;;;;;36.03;17.45;;;;;;;-2.59;92.95;99918.03;1471770;88;22508;-79
2024/01/17 05:57:36;;;;;;;32.08;14.33;;;;;;;-2.68;94.42;99914.58;1472415;88;21435;-79
2024/01/17 06:00:09;;;;;;;63.85;25.37;;;;;;;-2.77;95.86;99911.99;1470370;88;21391;-79
2024/01/17 06:02:37;;;;;;;95.10;33.48;;;;;;;-2.81;95.75;99914.36;1472607;88;21428;-79
2024/01/17 06:05:05;;;;;;;116.47;36.75;;;;;;;-2.85;97.56;99915.44;1469880;88;21310;-77
2024/01/17 06:07:31;;;;;;;60.67;21.95;;;;;;;-2.88;100.00;99914.27;1468107;88;21506;-78
2024/01/17 06:09:58;;;;;;;41.18;18.90;;;;;;;-2.91;100.00;99909.70;1475502;88;21392;-77
2024/01/17 06:12:24;;;;;;;40.30;18.10;;;;;;;-2.95;100.00;99909.02;1467165;88;21488;-78
2024/01/17 06:14:51;;;;;;;41.15;19.12;;;;;;;-2.97;100.00;99909.54;1471934;88;21630;-77
2024/01/17 06:17:18;;;;;;;37.10;17.67;;;;;;;-2.97;100.00;99910.84;1466541;88;21525;-78
2024/01/17 06:19:44;;;;;;;41.70;20.37;;;;;;;-3.01;100.00;99903.68;1446569;88;22367;-77
2024/01/17 06:22:12;;;;;;;44.40;21.57;;;;;;;-3.01;100.00;99902.84;1467780;88;21392;-78
2024/01/17 06:24:38;;;;;;;35.98;17.20;;;;;;;-3.01;100.00;99905.44;1469463;88;21568;-77
2024/01/17 06:27:05;;;;;;;33.63;15.93;;;;;;;-3.02;100.00;99911.08;1466989;88;21362;-76
2024/01/17 06:29:33;;;;;;;27.37;14.78;;;;;;;-3.00;100.00;99905.81;1473491;88;21332;-76
2024/01/17 06:32:00;;;;;;;26.42;12.33;;;;;;;-2.98;100.00;99905.28;1471127;88;22418;-76
2024/01/17 06:34:26;;;;;;;26.55;13.60;;;;;;;-2.99;100.00;99898.45;1473336;88;21356;-77
2024/01/17 06:36:52;;;;;;;36.85;14.75;;;;;;;-2.98;100.00;99907.88;1471025;88;21494;-78
2024/01/17 06:39:19;;;;;;;29.42;13.43;;;;;;;-2.97;100.00;99903.07;1472387;88;21369;-78
2024/01/17 06:41:46;;;;;;;29.42;14.93;;;;;;;-2.93;100.00;99911.09;1464512;88;22509;-79
2024/01/17 06:44:12;;;;;;;29.20;13.45;;;;;;;-2.92;100.00;99906.74;1462481;88;21451;-78
2024/01/17 06:46:39;;;;;;;28.15;15.05;;;;;;;-2.88;100.00;99914.27;1467299;88;21484;-78
2024/01/17 06:49:05;;;;;;;35.20;16.07;;;;;;;-2.85;100.00;99914.14;1473075;88;21377;-77
2024/01/17 06:51:31;;;;;;;33.95;16.30;;;;;;;-2.79;100.00;99926.79;1474640;88;21369;-77
2024/01/17 06:53:58;;;;;;;29.37;15.28;;;;;;;-2.76;100.00;99921.92;1483584;88;21831;-79
2024/01/17 06:56:25;;;;;;;49.88;18.23;;;;;;;-2.69;100.00;99926.33;1478343;88;22950;-78
2024/01/17 06:58:51;;;;;;;51.83;19.32;;;;;;;-2.64;100.00;99923.06;1467705;88;21362;-80
2024/01/17 07:01:18;;;;;;;44.83;17.20;;;;;;;-2.59;100.00;99924.95;1473261;88;21458;-81
2024/01/17 07:03:44;;;;;;;50.90;18.60;;;;;;;-2.51;100.00;99926.70;1461003;88;21652;-80
2024/01/17 07:06:11;;;;;;;46.10;17.65;;;;;;;-2.43;100.00;99915.49;1459324;88;21428;-79
2024/01/17 07:08:37;;;;;;;52.10;17.87;;;;;;;-2.36;100.00;99909.10;1473154;88;21318;-80
2024/01/17 07:11:04;;;;;;;49.93;17.40;;;;;;;-2.31;100.00;99907.08;1454105;88;21539;-80
2024/01/17 07:13:30;;;;;;;47.38;19.82;;;;;;;-2.24;100.00;99906.77;1471371;88;21519;-79
2024/01/17 07:15:56;;;;;;;54.88;20.85;;;;;;;-2.20;100.00;99899.23;1470400;88;21340;-80
2024/01/17 07:18:23;;;;;;;93.82;36.68;;;;;;;-2.12;99.58;99906.98;1471189;88;21515;-79
2024/01/17 07:20:49;;;;;;;120.53;45.85;;;;;;;-2.06;98.91;99905.83;1466013;88;22279;-79
2024/01/17 07:23:16;;;;;;;109.05;42.90;;;;;;;-1.96;98.51;99907.00;1468882;88;21502;-78
2024/01/17 07:25:44;;;;;;;97.27;38.55;;;;;;;-1.86;98.09;99903.02;1474395;89;22332;-79
2024/01/17 07:28:10;;;;;;;69.10;32.65;;;;;;;-1.77;96.82;99899.56;1469080;89;21376;-79
2024/01/17 07:30:36;;;;;;;70.25;33.38;;;;;;;-1.67;96.42;99902.02;1477655;89;21599;-80
2024/01/17 07:33:03;;;;;;;51.68;27.70;;;;;;;-1.57;95.67;99900.62;1476899;89;21377;-80
2024/01/17 07:35:29;;;;;;;41.60;22.07;;;;;;;-1.49;94.17;99898.91;1455471;89;21347;-79
2024/01/17 07:37:58;;;;;;;45.03;23.62;;;;;;;-1.41;93.17;99897.57;1472858;89;21547;-79
2024/01/17 07:40:24;;;;;;;71.05;31.05;;;;;;;-1.31;92.73;99897.05;1448713;89;22516;-79
2024/01/17 07:42:51;;;;;;;62.83;26.87;;;;;;;-1.26;90.51;99885.95;1448624;89;22300;-79
2024/01/17 07:45:18;;;;;;;54.98;24.02;;;;;;;-1.20;89.03;99873.92;1465544;89;21473;-79
2024/01/17 07:47:44;;;;;;;55.83;24.13;;;;;;;-1.13;87.80;99877.84;1450433;89;21450;-79
2024/01/17 07:52:42;;;;;;;30.75;15.63;;;;;;;-0.89;87.58;99867.83;1500604;85;25788;-79
2024/01/17 07:55:09;;;;;;;24.32;14.15;;;;;;;-0.85;85.48;99864.11;1469314;88;22788;-79
2024/01/17 07:57:35;;;;;;;20.80;11.73;;;;;;;-0.82;84.12;99871.73;1462590;88;21471;-78
2024/01/17 08:02:41;;;;;;;27.50;15.20;;;;;;;-0.72;83.06;99871.58;1492559;85;22745;-79
2024/01/17 08:05:08;;;;;;;33.70;14.50;;;;;;;-0.72;82.91;99857.28;1478778;88;21684;-78
2024/01/17 08:07:34;;;;;;;27.13;13.47;;;;;;;-0.65;82.79;99854.33;1476963;87;21617;-78
2024/01/17 08:10:01;;;;;;;24.23;13.10;;;;;;;-0.61;82.49;99863.13;1457680;87;21767;-78
2024/01/17 08:12:27;;;;;;;22.77;12.23;;;;;;;-0.57;81.00;99857.31;1461761;87;21881;-79
2024/01/17 08:14:53;;;;;;;32.53;16.97;;;;;;;-0.56;80.96;99852.48;1479324;87;21535;-78
2024/01/17 08:17:19;;;;;;;30.70;17.17;;;;;;;-0.55;79.36;99853.67;1479845;87;21759;-79
2024/01/17 08:19:46;;;;;;;24.57;12.20;;;;;;;-0.50;79.12;99856.01;1474525;88;21563;-79
2024/01/17 08:22:13;;;;;;;20.60;11.23;;;;;;;-0.43;78.48;99848.23;1471903;88;21560;-78
2024/01/17 08:24:41;;;;;;;21.70;11.57;;;;;;;-0.34;78.31;99850.27;1458655;88;21726;-79
2024/01/17 08:27:08;;;;;;;18.23;9.43;;;;;;;-0.25;76.75;99844.98;1474590;87;21705;-78
2024/01/17 08:29:34;;;;;;;21.40;9.90;;;;;;;-0.15;76.47;99836.14;1467216;87;21760;-79
2024/01/17 08:32:00;;;;;;;28.63;12.77;;;;;;;-0.07;74.56;99834.73;1473966;88;21638;-78
2024/01/17 08:34:29;;;;;;;25.10;12.70;;;;;;;0.02;74.53;99828.60;1428197;88;21582;-77
2024/01/17 08:36:55;;;;;;;24.20;12.53;;;;;;;0.13;74.14;99832.67;1481204;88;23574;-77
2024/01/17 08:39:21;;;;;;;21.53;11.43;;;;;;;0.29;74.76;99826.89;1491009;87;21605;-78
2024/01/17 08:41:48;;;;;;;25.63;11.67;;;;;;;0.40;73.13;99828.35;1478703;87;21683;-77
2024/01/17 08:44:15;;;;;;;20.40;9.97;;;;;;;0.55;72.90;99827.00;1487648;87;21711;-78
2024/01/17 08:46:45;;;;;;;17.53;9.40;;;;;;;0.65;72.38;99819.78;1480582;87;21798;-79
2024/01/17 08:49:13;;;;;;;17.35;10.43;;;;;;;0.74;72.05;99822.72;1485991;87;21801;-78
2024/01/17 08:51:39;;;;;;;22.23;10.53;;;;;;;0.82;71.49;99815.25;1414096;87;21381;-79
2024/01/17 08:54:05;;;;;;;26.43;12.27;;;;;;;0.89;71.30;99817.80;1409462;87;21714;-79
2024/01/17 08:56:33;;;;;;;27.57;12.77;;;;;;;0.97;70.94;99809.02;1409023;87;21602;-77
2024/01/17 08:59:01;;;;;;;20.03;8.70;;;;;;;1.09;71.75;99817.80;1407980;87;21749;-79
2024/01/17 09:01:27;;;;;;;22.20;11.83;;;;;;;1.16;68.94;99813.03;1417446;87;21695;-77
2024/01/17 09:03:54;;;;;;;22.23;10.97;;;;;;;1.19;68.63;99804.52;1405614;88;21510;-77
2024/01/17 09:06:20;;;;;;;21.33;11.80;;;;;;;1.25;67.29;99811.10;1405542;88;21614;-79
2024/01/17 09:08:46;;;;;;;75.30;37.43;;;;;;;1.34;68.33;99803.48;1405971;88;21870;-78
2024/01/17 09:11:12;;;;;;;18.87;10.33;;;;;;;1.47;68.04;99796.16;1412241;88;21566;-77
2024/01/17 09:13:39;;;;;;;25.77;8.23;;;;;;;1.56;65.41;99797.64;1406542;88;21913;-77
2024/01/17 09:16:05;;;;;;;12.30;7.40;;;;;;;1.70;66.58;99791.95;1405376;88;21779;-77
2024/01/17 09:18:31;;;;;;;18.23;9.70;;;;;;;1.86;64.95;99771.66;1442083;88;21781;-78
2024/01/17 09:20:58;;;;;;;22.47;12.17;;;;;;;2.07;65.13;99777.60;1480766;88;22040;-78
2024/01/17 09:23:24;;;;;;;17.77;8.50;;;;;;;2.07;65.13;99777.60;1482659;88;21971;-78
2024/01/17 09:25:50;;;;;;;16.17;8.17;;;;;;;2.21;63.35;99754.78;1486109;88;22822;-78
2024/01/17 09:28:16;;;;;;;11.50;6.60;;;;;;;2.21;63.35;99754.78;1468090;88;22323;-79
2024/01/17 09:30:43;;;;;;;10.73;6.60;;;;;;;2.33;62.64;99760.06;1484394;88;22176;-79
2024/01/17 09:33:09;;;;;;;15.10;7.90;;;;;;;2.33;61.27;99756.14;1488347;88;22282;-79
2024/01/17 09:35:38;;;;;;;15.10;8.17;;;;;;;2.32;61.84;99749.27;1485836;88;22271;-79
2024/01/17 09:38:06;;;;;;;18.07;9.77;;;;;;;2.35;62.53;99748.56;1483859;88;22189;-79
2024/01/17 09:40:33;;;;;;;11.67;6.87;;;;;;;2.41;61.55;99752.52;1474873;88;22288;-78
2024/01/17 09:43:00;;;;;;;14.50;7.83;;;;;;;2.43;60.82;99748.02;1478078;88;22207;-77
2024/01/17 09:45:30;;;;;;;11.93;6.87;;;;;;;2.42;61.92;99741.97;1408491;88;22182;-77
2024/01/17 09:47:56;;;;;;;11.93;6.70;;;;;;;2.41;62.56;99731.61;1567789;88;23025;-77
2024/01/17 09:50:23;;;;;;;13.10;7.17;;;;;;;2.36;60.64;99714.14;1405680;88;22111;-77
2024/01/17 09:52:51;;;;;;;15.43;6.53;;;;;;;2.31;60.92;99714.97;1387889;89;22225;-76
2024/01/17 09:55:19;;;;;;;10.43;5.83;;;;;;;2.24;60.84;99707.59;1560005;88;22115;-77
2024/01/17 09:57:59;;;;;;;11.23;5.53;;;;;;;2.06;59.77;99695.03;1403481;88;22208;-76
2024/01/17 10:00:25;;;;;;;14.73;6.47;;;;;;;2.06;59.77;99695.03;1402284;89;22170;-77
2024/01/17 10:02:54;;;;;;;32.40;16.63;;;;;;;1.87;59.91;99674.63;1532088;87;22109;-75
2024/01/17 10:05:22;;;;;;;45.97;19.20;;;;;;;1.93;60.76;99692.48;1393721;89;22197;-77
2024/01/17 10:07:48;;;;;;;19.73;9.10;;;;;;;1.80;59.86;99678.99;1405873;87;22070;-76
2024/01/17 10:10:15;;;;;;;23.30;12.00;;;;;;;1.76;60.48;99671.52;1407203;87;22358;-78
2024/01/17 10:12:42;;;;;;;9.47;5.90;;;;;;;1.76;60.48;99671.52;1407017;87;21912;-76
2024/01/17 10:15:14;;;;;;;16.20;9.90;;;;;;;1.72;59.90;99676.56;1412930;87;22251;-76
2024/01/17 10:17:40;;;;;;;10.37;6.87;;;;;;;1.67;61.01;99673.00;1404950;89;21830;-77
2024/01/17 10:20:08;;;;;;;14.70;7.20;;;;;;;1.67;61.01;99673.00;1407379;87;21837;-76
2024/01/17 10:22:34;;;;;;;12.43;6.87;;;;;;;1.68;61.58;99665.52;1406337;87;21800;-77
2024/01/17 10:25:02;;;;;;;15.93;7.90;;;;;;;1.73;61.52;99654.30;1413157;87;22019;-77
2024/01/17 10:27:28;;;;;;;17.27;7.57;;;;;;;1.70;61.47;99639.34;1406014;87;21917;-77
2024/01/17 10:29:55;;;;;;;17.87;8.50;;;;;;;1.72;60.94;99636.95;1406900;87;21920;-77
2024/01/17 10:32:21;;;;;;;16.90;8.07;;;;;;;1.72;60.94;99636.95;1545208;87;21903;-77
2024/01/17 10:34:48;;;;;;;12.63;7.30;;;;;;;1.75;60.72;99638.04;1413545;87;21934;-76
2024/01/17 10:37:19;;;;;;;13.50;7.70;;;;;;;1.91;61.24;99633.03;1407136;87;22770;-77
2024/01/17 10:39:45;;;;;;;12.60;6.90;;;;;;;1.91;61.24;99633.03;1570264;87;22629;-77
2024/01/17 10:42:25;;;;;;;11.27;6.10;;;;;;;1.98;61.22;99619.88;1461086;87;21566;-77
2024/01/17 10:44:48;;;;;;;9.97;6.07;;;;;;;1.99;61.00;99625.48;1479108;87;22369;-77
2024/01/17 10:47:14;;;;;;;14.77;8.00;;;;;;;1.99;61.00;99614.56;1482773;87;22184;-77
2024/01/17 10:49:40;;;;;;;16.73;9.17;;;;;;;1.99;60.78;99614.56;1487463;87;22166;-78
2024/01/17 10:52:11;;;;;;;27.90;14.13;;;;;;;2.02;60.33;99613.03;1486479;87;23100;-76
2024/01/17 10:54:47;;;;;;;;;;;;;;;2.01;60.10;99604.86;1455553;87;22317;-78
2024/01/17 10:57:15;;;;;;;14.97;7.20;;;;;;;2.04;60.87;99592.02;1480412;87;20326;-77
2024/01/17 10:59:43;;;;;;;16.50;7.67;;;;;;;2.04;60.87;99592.02;1482138;87;22182;-78
2024/01/17 11:02:15;;;;;;;13.60;6.57;;;;;;;1.95;61.00;99575.75;1432847;87;22132;-78
2024/01/17 11:04:44;;;;;;;14.70;8.50;;;;;;;2.00;61.34;99579.68;1475642;88;22216;-77
2024/01/17 11:07:11;;;;;;;11.93;6.90;;;;;;;2.00;60.70;99569.72;1478410;88;23027;-78
2024/01/17 11:09:39;;;;;;;16.33;8.77;;;;;;;1.97;60.98;99567.34;1480881;88;22584;-78
2024/01/17 11:12:08;;;;;;;12.77;7.60;;;;;;;1.96;61.15;99566.52;1480378;88;22873;-77
2024/01/17 11:14:36;;;;;;;12.53;7.67;;;;;;;1.97;61.88;99542.55;1477991;88;21879;-79
2024/01/17 11:17:04;;;;;;;13.87;6.83;;;;;;;1.97;61.88;99542.55;1481666;88;22028;-78
2024/01/17 11:19:33;;;;;;;13.27;6.67;;;;;;;1.98;61.60;99532.45;1464369;88;22095;-78
2024/01/17 11:22:01;;;;;;;13.73;6.37;;;;;;;1.98;61.60;99532.45;1402911;88;21922;-78